首页
METAR-TAF:

METAR-TAF

机场 :

Mary's Harbour, 西北特區, 加拿大

纬度: 52-18N, 经度: 055-51W, 海拔: 11米

当前天气观测

该预报发布于26分钟前的17:00 UTC
风速9节,风向东转东南,在东转东北东转东南之间变化
温度 15°C
湿度 77%
气压 1001 hPa
能見度: 14.5公里
天空无云

METAR: CYMH 241700Z AUTO 11009KT 060V120 9SM CLR 15/11 A2955 RMK SLP008 DENSITY ALT 600FT

时间: 11:26 (17:26 UTC)

预报

该预报发布于3小时和46分钟前的13:40 UTC
预报有效从24日的 14点(UTC)到 25日的 02点(UTC)
风速5节,风向
能見度: 10公里
少量云层高于900英尺
多云层高于18000英尺
短暂存在
从 24日的 14点(UTC)到 24日的 16点(UTC)
多云层高于900英尺
多云层高于18000英尺
成为
从 24日的 16点(UTC)到 24日的 18点(UTC)
风速12节,风向
从 24日的 1800点(UTC)
风速12节,风向
能見度: 10公里
少量云层高于2500英尺
散云层高于16000英尺
从 24日的 2300点(UTC)
风速10节,风向
能見度: 10公里
散云层高于5000英尺
阴天层高于12000英尺
短暂存在
从 24日的 23点(UTC)到 25日的 02点(UTC)
能見度: 10公里
多云层高于5000英尺
小阵雨

TAF: CYMH 241340Z 2414/2502 09005KT P6SM FEW009 BKN180 TEMPO 2414/2416 BKN009 BKN180 BECMG 2416/2418 17012KT FM241800 17012KT P6SM FEW025 SCT160 FM242300 18010KT P6SM SCT050 OVC120 TEMPO 2423/2502 P6SM -SHRA BKN050 RMK FCST BASED ON AUTO OBS. NXT FCST BY 242000Z

超过4000个机场的气象观测和天气预报(METAR&TAF报告)。

可查询的气象台以黄色和红色小点在地图上表示。

将鼠标移到小点上方,可查看气象台名称。

然后点击查看天气观测和预报。

如需切换地图:点击带黑十字的绿色按钮放大地图;点击带横线的绿色按钮缩小地图;或者点击绿色箭头查看邻近地区的地图。


METAR-TAF: